Time;durP1;ratioP1;P1;durP2;ratioP2;P2;SDS_P1;SDS_P2;PMS_P1;PMS_P2;Temp;Humidity;BMP_temperature;BMP_pressure;BME280_temperature;BME280_humidity;BME280_pressure;Samples;Min_cycle;Max_cycle;Signal;HPM_P1;HPM_P2
2021/10/26 00:00:12;;;;;;;10.05;7.82;;;9.90;99.90;;;;;;6300793;28;20507;-82
2021/10/26 00:03:14;;;;;;;11.27;8.40;;;10.00;99.90;;;;;;6300391;28;20028;-82
2021/10/26 00:06:15;;;;;;;15.23;8.52;;;10.30;99.90;;;;;;6296776;28;20028;-82
2021/10/26 00:09:16;;;;;;;9.68;7.35;;;;;;;;;;6275216;28;20088;-82
2021/10/26 00:12:16;;;;;;;12.38;7.82;;;10.00;99.90;;;;;;6301587;28;20522;-84
2021/10/26 00:15:17;;;;;;;11.80;8.27;;;9.90;99.90;;;;;;6299616;28;20040;-83
2021/10/26 00:18:18;;;;;;;8.20;6.82;;;9.90;99.90;;;;;;6274876;28;20497;-84
2021/10/26 00:21:19;;;;;;;11.30;7.85;;;;;;;;;;6259492;28;20437;-83
2021/10/26 00:24:20;;;;;;;13.32;7.97;;;;;;;;;;6292166;28;20028;-79
2021/10/26 00:27:20;;;;;;;17.08;7.68;;;10.30;99.90;;;;;;6296916;28;20439;-81
2021/10/26 00:30:21;;;;;;;12.98;7.68;;;10.30;99.90;;;;;;6266268;28;20028;-82
2021/10/26 00:33:23;;;;;;;11.05;6.95;;;10.30;99.90;;;;;;6262184;28;20370;-81
2021/10/26 00:36:24;;;;;;;12.82;7.45;;;10.30;99.90;;;;;;6266732;28;20050;-81
2021/10/26 00:39:25;;;;;;;9.50;7.28;;;10.20;99.90;;;;;;6274885;28;20029;-81
2021/10/26 00:42:26;;;;;;;12.27;8.00;;;10.30;99.90;;;;;;6291442;28;20029;-83
2021/10/26 00:45:26;;;;;;;10.60;7.63;;;10.40;99.90;;;;;;6274722;28;20037;-84
2021/10/26 00:48:27;;;;;;;10.70;7.65;;;10.30;99.90;;;;;;6275230;28;20025;-81
2021/10/26 00:51:31;;;;;;;12.93;8.07;;;10.30;99.90;;;;;;6297794;28;20385;-82
2021/10/26 00:54:32;;;;;;;12.73;7.78;;;10.30;99.90;;;;;;6275007;28;20040;-81
2021/10/26 00:57:33;;;;;;;8.70;7.55;;;10.40;99.90;;;;;;6275156;28;20024;-82
2021/10/26 01:00:34;;;;;;;9.93;7.28;;;10.50;99.90;;;;;;6274877;28;20055;-82
2021/10/26 01:03:34;;;;;;;8.98;7.43;;;10.60;99.90;;;;;;6258499;28;20454;-83
2021/10/26 01:06:35;;;;;;;13.65;7.57;;;10.30;99.90;;;;;;6261820;28;20025;-83
2021/10/26 01:09:36;;;;;;;8.40;7.30;;;10.30;99.90;;;;;;6261429;28;20064;-82
2021/10/26 01:12:37;;;;;;;10.07;7.97;;;10.30;99.90;;;;;;6275103;28;20043;-84
2021/10/26 01:15:37;;;;;;;10.30;7.32;;;10.30;99.90;;;;;;6274314;28;20053;-84
2021/10/26 01:18:38;;;;;;;10.65;8.15;;;10.30;99.90;;;;;;6266497;28;20039;-82
2021/10/26 01:21:38;;;;;;;12.07;7.28;;;10.30;99.90;;;;;;6316368;28;20035;-84
2021/10/26 01:24:39;;;;;;;14.70;8.80;;;10.10;99.90;;;;;;6315806;28;20028;-81
2021/10/26 01:27:44;;;;;;;12.13;7.63;;;10.20;99.90;;;;;;6270833;28;20028;-83
2021/10/26 01:30:45;;;;;;;11.80;7.72;;;9.90;99.90;;;;;;6274485;28;20153;-81
2021/10/26 01:33:45;;;;;;;11.27;7.95;;;;;;;;;;6276367;28;20028;-82
2021/10/26 01:36:48;;;;;;;13.32;7.78;;;10.10;99.90;;;;;;6316878;28;20028;-82
2021/10/26 01:39:49;;;;;;;13.52;8.77;;;10.60;99.90;;;;;;6281176;28;20450;-82
2021/10/26 01:42:50;;;;;;;11.10;8.10;;;10.10;99.90;;;;;;6274462;28;20021;-82
2021/10/26 01:45:51;;;;;;;10.23;7.97;;;10.00;99.90;;;;;;6280556;28;20040;-82
2021/10/26 01:48:52;;;;;;;12.75;8.43;;;10.80;99.90;;;;;;6272741;28;20425;-83
2021/10/26 01:51:53;;;;;;;12.25;8.02;;;10.00;99.90;;;;;;6263484;28;20040;-81
2021/10/26 01:54:54;;;;;;;9.80;8.03;;;10.00;99.90;;;;;;6273339;28;20363;-82
2021/10/26 01:57:55;;;;;;;11.75;9.32;;;10.00;99.90;;;;;;6278572;28;20025;-82
2021/10/26 02:00:55;;;;;;;10.27;9.05;;;9.90;99.90;;;;;;6262614;28;20165;-82
2021/10/26 02:03:56;;;;;;;10.63;8.68;;;9.90;99.90;;;;;;6273212;28;20111;-82
2021/10/26 02:06:56;;;;;;;11.52;8.55;;;9.90;99.90;;;;;;6261071;28;20056;-84
2021/10/26 02:09:57;;;;;;;12.32;9.02;;;11.30;99.90;;;;;;6262022;28;20029;-82
2021/10/26 02:12:57;;;;;;;9.88;8.05;;;10.00;99.90;;;;;;6283123;28;20032;-83
2021/10/26 02:15:58;;;;;;;11.98;8.65;;;10.00;99.90;;;;;;6296003;28;20051;-85
2021/10/26 02:18:59;;;;;;;10.32;7.97;;;10.00;99.90;;;;;;6281842;28;20032;-83
2021/10/26 02:21:59;;;;;;;9.27;7.93;;;10.10;99.90;;;;;;6294548;28;20039;-82
2021/10/26 02:25:00;;;;;;;9.02;7.47;;;10.30;99.90;;;;;;6278128;28;20032;-82
2021/10/26 02:28:00;;;;;;;13.57;8.27;;;10.10;99.90;;;;;;6295010;28;20458;-82
2021/10/26 02:31:01;;;;;;;8.25;7.28;;;10.20;99.90;;;;;;6294556;28;20111;-82
2021/10/26 02:34:01;;;;;;;9.50;7.57;;;10.10;99.90;;;;;;6278067;28;20048;-82
2021/10/26 02:37:02;;;;;;;11.98;8.00;;;10.10;99.90;;;;;;6278310;28;20048;-81
2021/10/26 02:40:04;;;;;;;9.90;7.50;;;10.10;99.90;;;;;;6261117;28;20024;-82
2021/10/26 02:43:05;;;;;;;9.40;8.03;;;;;;;;;;6268226;28;20081;-82
2021/10/26 02:46:06;;;;;;;7.88;6.85;;;;;;;;;;6294875;28;20254;-82
2021/10/26 02:49:07;;;;;;;9.53;7.53;;;10.10;99.90;;;;;;6277853;28;20394;-82
2021/10/26 02:52:08;;;;;;;9.68;7.35;;;10.20;99.90;;;;;;6273342;28;20052;-82
2021/10/26 02:55:09;;;;;;;9.07;7.75;;;10.00;99.90;;;;;;6285256;28;20500;-82
2021/10/26 02:58:09;;;;;;;8.45;7.20;;;10.00;99.90;;;;;;6279376;28;20028;-81
2021/10/26 03:01:10;;;;;;;11.13;7.53;;;10.20;99.90;;;;;;6294343;28;20468;-82
2021/10/26 03:04:11;;;;;;;10.80;7.38;;;10.00;99.90;;;;;;6259710;28;20078;-82
2021/10/26 03:07:11;;;;;;;8.35;7.50;;;10.60;99.90;;;;;;6260607;28;20202;-82
2021/10/26 03:10:12;;;;;;;7.65;6.75;;;;;;;;;;6288165;28;20036;-83
2021/10/26 03:13:13;;;;;;;8.73;7.25;;;10.10;99.90;;;;;;6293440;28;20032;-82
2021/10/26 03:16:14;;;;;;;8.77;7.18;;;10.30;99.90;;;;;;6276997;28;20036;-82
2021/10/26 03:19:14;;;;;;;9.02;7.47;;;9.90;99.90;;;;;;6260301;28;20052;-84
2021/10/26 03:22:15;;;;;;;10.68;7.95;;;9.90;99.90;;;;;;6277127;28;20032;-82
2021/10/26 03:25:15;;;;;;;11.23;8.75;;;9.80;99.90;;;;;;6293504;28;20383;-81
2021/10/26 03:28:16;;;;;;;14.85;13.13;;;9.80;99.90;;;;;;6293337;28;20165;-82
2021/10/26 03:31:17;;;;;;;12.45;10.25;;;10.00;99.90;;;;;;6276684;28;20029;-82
2021/10/26 03:34:18;;;;;;;9.60;7.82;;;;;;;;;;6293066;28;20040;-82
2021/10/26 03:37:19;;;;;;;12.50;10.60;;;;;;;;;;6270948;28;20028;-82
2021/10/26 03:40:20;;;;;;;14.45;12.95;;;;;;;;;;6276252;28;20051;-82
2021/10/26 03:43:21;;;;;;;11.10;9.45;;;;;;;;;;6295125;28;20032;-83
2021/10/26 03:46:22;;;;;;;9.73;8.23;;;;;;;;;;6292864;28;20071;-82
2021/10/26 03:49:22;;;;;;;10.35;8.18;;;9.90;99.90;;;;;;6276292;28;20462;-82
2021/10/26 03:52:23;;;;;;;11.68;8.57;;;9.70;99.90;;;;;;6259936;28;20027;-83
2021/10/26 03:55:23;;;;;;;9.68;8.02;;;9.90;99.90;;;;;;6259696;28;20064;-81
2021/10/26 03:58:24;;;;;;;9.63;7.90;;;9.90;99.90;;;;;;6276072;28;20493;-82
2021/10/26 04:01:25;;;;;;;12.82;8.48;;;9.90;99.90;;;;;;6265886;28;20024;-80
2021/10/26 04:04:25;;;;;;;11.50;8.55;;;10.00;99.90;;;;;;6292717;28;20028;-82
2021/10/26 04:07:26;;;;;;;9.32;8.00;;;9.90;99.90;;;;;;6259102;28;20119;-82
2021/10/26 04:10:32;;;;;;;9.68;7.80;;;9.90;99.90;;;;;;6259742;28;20028;-81
2021/10/26 04:13:32;;;;;;;12.27;9.25;;;9.50;99.90;;;;;;6273875;28;20082;-81
2021/10/26 04:16:33;;;;;;;9.00;7.97;;;9.80;99.90;;;;;;6305936;28;20040;-82
2021/10/26 04:19:33;;;;;;;37.60;26.85;;;10.70;99.90;;;;;;6293443;28;20058;-81
2021/10/26 04:22:34;;;;;;;14.38;12.88;;;9.80;99.90;;;;;;6286775;28;20067;-80
2021/10/26 04:25:34;;;;;;;9.57;7.70;;;9.70;99.90;;;;;;6309573;28;20030;-82
2021/10/26 04:28:35;;;;;;;11.77;7.68;;;9.70;99.90;;;;;;6263334;28;20032;-82
2021/10/26 04:31:36;;;;;;;9.30;8.05;;;9.80;99.90;;;;;;6276004;28;20455;-79
2021/10/26 04:34:37;;;;;;;13.75;9.70;;;9.80;99.90;;;;;;6267937;28;20090;-81
2021/10/26 04:37:37;;;;;;;13.57;10.82;;;9.80;99.90;;;;;;6281752;28;20036;-79
2021/10/26 04:40:38;;;;;;;10.98;8.40;;;10.30;99.90;;;;;;6294688;28;20070;-80
2021/10/26 04:43:39;;;;;;;8.40;6.75;;;9.80;99.90;;;;;;6287640;28;20093;-81
2021/10/26 04:46:39;;;;;;;14.32;9.40;;;9.80;99.90;;;;;;6258181;28;20624;-81
2021/10/26 04:49:40;;;;;;;10.25;7.88;;;9.80;99.90;;;;;;6296564;28;20024;-81
2021/10/26 04:52:40;;;;;;;12.80;9.35;;;9.90;99.90;;;;;;6299325;28;20024;-80
2021/10/26 04:55:41;;;;;;;10.88;8.48;;;9.80;99.90;;;;;;6316159;28;20478;-82
2021/10/26 04:58:42;;;;;;;17.75;8.82;;;9.70;99.90;;;;;;6304079;28;20540;-82
2021/10/26 05:01:42;;;;;;;19.90;13.65;;;9.70;99.90;;;;;;6272882;28;20044;-83
2021/10/26 05:04:43;;;;;;;10.20;8.35;;;10.30;99.90;;;;;;6267183;28;20032;-83
2021/10/26 05:07:44;;;;;;;11.55;8.45;;;10.00;99.90;;;;;;6261950;28;20426;-85
2021/10/26 05:10:44;;;;;;;10.65;8.15;;;9.80;99.90;;;;;;6279920;28;20025;-84
2021/10/26 05:13:45;;;;;;;13.10;9.38;;;9.90;99.90;;;;;;6261268;28;20106;-84
2021/10/26 05:16:46;;;;;;;19.10;11.38;;;9.50;99.90;;;;;;6258598;28;20032;-84
2021/10/26 05:19:50;;;;;;;13.00;11.57;;;9.60;99.90;;;;;;6289361;28;20121;-83
2021/10/26 05:22:52;;;;;;;10.88;9.77;;;9.60;99.90;;;;;;6290185;28;20024;-83
2021/10/26 05:25:52;;;;;;;11.43;8.18;;;9.60;99.90;;;;;;6295881;28;20031;-82
2021/10/26 05:28:53;;;;;;;10.90;7.90;;;10.00;99.90;;;;;;6268148;28;20078;-80
2021/10/26 05:31:53;;;;;;;10.85;7.75;;;9.50;99.90;;;;;;6288163;28;20075;-84
2021/10/26 05:34:54;;;;;;;9.52;7.88;;;9.50;99.90;;;;;;6297763;28;20200;-84
2021/10/26 05:37:54;;;;;;;11.18;7.85;;;9.50;99.90;;;;;;6292327;28;20030;-85
2021/10/26 05:40:55;;;;;;;12.57;8.85;;;;;;;;;;6280797;28;20024;-88
2021/10/26 05:43:56;;;;;;;10.45;7.88;;;9.60;99.90;;;;;;6273992;28;20065;-88
2021/10/26 05:46:57;;;;;;;10.75;8.20;;;9.50;99.90;;;;;;6262472;28;20033;-83
2021/10/26 05:49:58;;;;;;;8.50;7.43;;;9.50;99.90;;;;;;6266329;28;20033;-88
2021/10/26 05:52:58;;;;;;;21.10;13.95;;;9.50;99.90;;;;;;6263186;28;20588;-86
2021/10/26 05:55:59;;;;;;;11.48;8.30;;;;;;;;;;6255071;28;20052;-90
2021/10/26 05:59:00;;;;;;;16.38;11.30;;;9.70;99.90;;;;;;6275317;28;20031;-85
2021/10/26 06:02:01;;;;;;;9.73;7.65;;;;;;;;;;6271721;28;20089;-86
2021/10/26 06:05:02;;;;;;;8.50;7.28;;;9.60;99.90;;;;;;6289553;28;20032;-84
2021/10/26 06:08:02;;;;;;;9.43;7.15;;;9.50;99.90;;;;;;6270731;28;20123;-85
2021/10/26 06:11:08;;;;;;;11.27;8.57;;;9.40;99.90;;;;;;6294420;28;20111;-85
2021/10/26 06:14:08;;;;;;;11.48;7.93;;;9.50;99.90;;;;;;6274517;28;20048;-85
2021/10/26 06:17:09;;;;;;;10.73;6.47;;;9.50;99.90;;;;;;6265910;28;20033;-88
2021/10/26 06:20:13;;;;;;;9.88;5.90;;;9.40;99.90;;;;;;6278616;28;20081;-85
2021/10/26 06:23:13;;;;;;;10.15;6.03;;;9.30;99.90;;;;;;6268368;28;20036;-88
2021/10/26 06:26:14;;;;;;;8.48;7.22;;;;;;;;;;6292857;28;20086;-86
2021/10/26 06:29:15;;;;;;;9.98;6.45;;;9.40;99.90;;;;;;6294510;28;20408;-85
2021/10/26 06:32:16;;;;;;;9.23;7.38;;;9.40;99.90;;;;;;6291950;28;20048;-86
2021/10/26 06:35:16;;;;;;;9.40;7.32;;;9.50;99.90;;;;;;6277146;28;20390;-84
2021/10/26 06:38:17;;;;;;;10.82;7.40;;;9.60;99.90;;;;;;6266520;28;20033;-88
2021/10/26 06:41:18;;;;;;;10.40;6.93;;;9.70;99.90;;;;;;6266058;28;20016;-87
2021/10/26 06:44:19;;;;;;;8.98;6.70;;;9.70;99.90;;;;;;6264430;28;20028;-86
2021/10/26 06:47:19;;;;;;;11.75;7.35;;;10.50;99.90;;;;;;6274614;28;20031;-86
2021/10/26 06:50:20;;;;;;;9.48;6.95;;;10.30;99.90;;;;;;6296638;28;20028;-87
2021/10/26 06:53:22;;;;;;;9.20;6.85;;;10.10;99.90;;;;;;6262194;28;20062;-87
2021/10/26 06:56:23;;;;;;;8.88;6.72;;;10.50;99.90;;;;;;6265864;28;20125;-85
2021/10/26 06:59:24;;;;;;;9.95;6.95;;;10.80;99.90;;;;;;6271377;28;20036;-86
2021/10/26 07:02:24;;;;;;;10.15;6.70;;;11.20;99.90;;;;;;6277132;28;20021;-86
2021/10/26 07:05:25;;;;;;;10.23;6.28;;;11.50;99.90;;;;;;6273425;28;20024;-91
2021/10/26 07:08:26;;;;;;;8.13;5.97;;;11.80;99.90;;;;;;6268397;28;20038;-87
2021/10/26 07:11:26;;;;;;;7.28;5.70;;;12.20;99.90;;;;;;6298796;28;20020;-86
2021/10/26 07:14:27;;;;;;;9.98;5.68;;;12.50;99.90;;;;;;6276569;28;20044;-85
2021/10/26 07:17:28;;;;;;;6.70;5.80;;;12.10;99.90;;;;;;6265142;28;20033;-89
2021/10/26 07:20:29;;;;;;;8.07;6.05;;;;;;;;;;6273997;28;20677;-88
2021/10/26 07:23:31;;;;;;;9.65;6.05;;;;;;;;;;6271189;28;20135;-86
2021/10/26 07:26:34;;;;;;;6.53;5.78;;;11.60;99.90;;;;;;6296321;28;20023;-87
2021/10/26 07:29:34;;;;;;;8.15;5.35;;;11.80;99.90;;;;;;6265925;28;20032;-89
2021/10/26 07:32:35;;;;;;;8.32;5.35;;;;;;;;;;6276866;28;20105;-86
2021/10/26 07:35:46;;;;;;;10.30;5.60;;;13.00;99.90;;;;;;6289862;28;20063;-86
2021/10/26 07:38:47;;;;;;;6.82;5.00;;;13.10;99.90;;;;;;6274391;28;20050;-87
2021/10/26 07:41:47;;;;;;;6.40;5.10;;;13.80;99.90;;;;;;6276542;28;20111;-86
2021/10/26 07:44:48;;;;;;;8.27;5.28;;;13.80;99.90;;;;;;6269762;28;20038;-86
2021/10/26 07:47:49;;;;;;;7.93;4.93;;;15.00;99.90;;;;;;6268840;28;20039;-92
2021/10/26 07:50:50;;;;;;;6.15;4.28;;;15.00;99.90;;;;;;6260192;28;20025;-86
2021/10/26 07:53:51;;;;;;;6.03;3.97;;;16.20;99.90;;;;;;6261383;28;20035;-88
2021/10/26 07:56:52;;;;;;;7.40;4.20;;;16.60;99.90;;;;;;6278551;28;20048;-87
2021/10/26 07:59:53;;;;;;;5.38;3.55;;;16.20;99.90;;;;;;6290515;28;20382;-88
2021/10/26 08:02:54;;;;;;;5.47;3.97;;;15.80;99.90;;;;;;6268728;28;20048;-87
2021/10/26 08:05:55;;;;;;;7.03;3.90;;;15.60;99.90;;;;;;6260526;28;20355;-87
2021/10/26 08:08:55;;;;;;;6.32;4.30;;;15.50;99.90;;;;;;6260168;28;20025;-90
2021/10/26 08:11:56;;;;;;;6.68;3.92;;;;;;;;;;6263047;28;20023;-88
2021/10/26 08:14:57;;;;;;;5.57;3.80;;;17.10;99.90;;;;;;6298576;28;20070;-86
2021/10/26 08:17:58;;;;;;;5.97;3.92;;;;;;;;;;6279262;28;20033;-88
2021/10/26 08:20:59;;;;;;;5.32;4.30;;;;;;;;;;6296965;28;20032;-87
2021/10/26 08:24:03;;;;;;;6.38;3.92;;;16.40;99.90;;;;;;6268656;28;20034;-87
2021/10/26 08:27:08;;;;;;;9.57;4.05;;;16.50;99.90;;;;;;6280480;28;20024;-87
2021/10/26 08:30:27;;;;;;;5.57;4.00;;;;;;;;;;6272551;28;20024;-85
2021/10/26 08:36:31;;;;;;;5.03;3.90;;;16.10;99.90;;;;;;6290410;28;20089;-86
2021/10/26 08:39:32;;;;;;;5.22;4.00;;;16.10;99.90;;;;;;6279928;28;20469;-87
2021/10/26 08:42:33;;;;;;;8.05;4.50;;;16.10;99.90;;;;;;6272786;28;20062;-90
2021/10/26 08:45:35;;;;;;;7.40;4.20;;;16.10;99.90;;;;;;6277559;28;20049;-87
2021/10/26 08:48:40;;;;;;;5.45;3.55;;;16.40;99.90;;;;;;6261636;28;20478;-87
2021/10/26 08:51:45;;;;;;;5.40;3.33;;;16.20;99.90;;;;;;6273147;28;20060;-87
2021/10/26 08:54:46;;;;;;;6.15;3.53;;;16.40;99.90;;;;;;6274385;28;20047;-87
2021/10/26 08:57:47;;;;;;;5.27;3.40;;;16.40;99.90;;;;;;6277752;28;20033;-89
2021/10/26 09:00:48;;;;;;;6.35;3.67;;;;;;;;;;6279605;28;20624;-86
2021/10/26 09:03:50;;;;;;;7.07;4.15;;;;;;;;;;6283585;28;20077;-87
2021/10/26 09:06:53;;;;;;;5.50;3.70;;;16.50;99.90;;;;;;6293584;28;20024;-89
2021/10/26 09:10:07;;;;;;;6.35;4.07;;;16.60;99.90;;;;;;6289563;28;20143;-88
2021/10/26 09:16:47;;;;;;;4.25;3.10;;;16.80;99.90;;;;;;6287878;28;20040;-88
2021/10/26 09:19:48;;;;;;;6.88;3.45;;;16.70;99.90;;;;;;6294800;28;20090;-87
2021/10/26 09:22:56;;;;;;;8.52;4.50;;;16.60;99.90;;;;;;6260499;28;20056;-85
2021/10/26 09:25:58;;;;;;;8.93;4.85;;;16.60;99.90;;;;;;6264118;28;20044;-85
2021/10/26 09:28:58;;;;;;;21.73;11.10;;;16.60;99.90;;;;;;6261867;28;20028;-83
2021/10/26 09:32:20;;;;;;;8.85;4.57;;;16.70;99.90;;;;;;6279770;28;20044;-85
2021/10/26 09:35:20;;;;;;;6.65;2.83;;;16.60;99.90;;;;;;6282766;28;20041;-85
2021/10/26 09:38:28;;;;;;;4.65;2.90;;;16.60;99.90;;;;;;6282761;28;20115;-85
2021/10/26 09:41:29;;;;;;;9.07;4.53;;;16.60;99.90;;;;;;6280173;28;20374;-89
2021/10/26 09:44:37;;;;;;;7.28;4.30;;;16.40;99.90;;;;;;6259210;28;20112;-84
2021/10/26 09:47:38;;;;;;;16.65;8.18;;;16.40;99.90;;;;;;6262673;28;20120;-85
2021/10/26 09:50:40;;;;;;;41.53;18.77;;;16.00;99.90;;;;;;6269514;28;20024;-85
2021/10/26 09:53:41;;;;;;;6.88;4.32;;;;;;;;;;6266088;28;20043;-86
2021/10/26 09:57:05;;;;;;;5.60;2.70;;;15.70;99.90;;;;;;6266766;28;20084;-89
2021/10/26 10:00:06;;;;;;;23.48;9.00;;;15.80;99.90;;;;;;6261122;28;20032;-85
2021/10/26 10:03:09;;;;;;;18.63;7.85;;;15.60;99.90;;;;;;6274975;28;20462;-85
2021/10/26 10:06:10;;;;;;;10.00;3.45;;;15.70;99.90;;;;;;6289948;28;20488;-85
2021/10/26 10:09:21;;;;;;;4.35;2.92;;;15.80;99.90;;;;;;6278514;28;20024;-84
2021/10/26 10:12:23;;;;;;;5.18;2.78;;;15.80;99.90;;;;;;6290317;28;20028;-87
2021/10/26 10:15:24;;;;;;;6.57;3.42;;;;;;;;;;6272267;28;20122;-85
2021/10/26 10:18:25;;;;;;;13.68;4.75;;;15.90;99.90;;;;;;6302374;28;20043;-87
2021/10/26 10:21:29;;;;;;;16.67;8.02;;;15.90;99.90;;;;;;6270730;28;20481;-89
2021/10/26 10:24:29;;;;;;;12.65;5.97;;;16.00;99.90;;;;;;6280016;28;20031;-85
2021/10/26 10:27:34;;;;;;;18.83;11.57;;;16.10;99.90;;;;;;6294958;28;20033;-87
2021/10/26 10:30:36;;;;;;;12.45;7.95;;;16.20;99.90;;;;;;6272434;28;20073;-85
2021/10/26 10:33:37;;;;;;;24.38;13.55;;;16.20;99.90;;;;;;6266047;28;20385;-86
2021/10/26 10:36:40;;;;;;;6.05;3.08;;;16.20;99.90;;;;;;6280467;28;20036;-86
2021/10/26 10:39:42;;;;;;;5.50;3.25;;;16.30;99.90;;;;;;6268847;28;20031;-86
2021/10/26 10:42:48;;;;;;;5.73;2.60;;;16.30;99.90;;;;;;6287083;28;20037;-87
2021/10/26 10:45:48;;;;;;;6.97;2.53;;;16.30;99.90;;;;;;6279701;28;20491;-86
2021/10/26 10:48:49;;;;;;;4.07;2.60;;;16.30;99.90;;;;;;6267919;28;20028;-85
2021/10/26 10:51:57;;;;;;;7.00;2.50;;;16.50;99.90;;;;;;6275684;28;20028;-87
2021/10/26 10:55:00;;;;;;;6.85;2.97;;;16.50;99.90;;;;;;6283784;28;20101;-85
2021/10/26 10:58:21;;;;;;;5.18;2.85;;;16.40;99.90;;;;;;6272008;28;20032;-85
2021/10/26 11:01:27;;;;;;;6.80;3.25;;;16.50;99.90;;;;;;6265831;28;20390;-86
2021/10/26 11:04:29;;;;;;;6.88;3.00;;;16.50;99.90;;;;;;6268437;28;20024;-86
2021/10/26 11:07:42;;;;;;;4.68;2.72;;;16.50;99.90;;;;;;6305477;28;20024;-88
2021/10/26 11:10:49;;;;;;;9.75;4.10;;;16.50;99.90;;;;;;6329668;28;20044;-86
2021/10/26 11:14:15;;;;;;;16.90;6.65;;;16.60;99.90;;;;;;6308716;28;20051;-86
2021/10/26 11:17:41;;;;;;;6.47;2.90;;;16.40;99.90;;;;;;6264968;28;20032;-85
2021/10/26 11:20:42;;;;;;;5.90;2.78;;;15.10;99.90;;;;;;6317483;28;20027;-88
2021/10/26 11:23:44;;;;;;;6.82;2.75;;;16.90;99.90;;;;;;6279470;28;20109;-86
2021/10/26 11:26:44;;;;;;;4.65;2.50;;;16.90;99.90;;;;;;6272894;28;20143;-86
2021/10/26 11:29:45;;;;;;;5.22;2.90;;;16.90;99.90;;;;;;6266225;28;20038;-86
2021/10/26 11:32:46;;;;;;;7.85;3.65;;;16.90;99.90;;;;;;6264932;28;20032;-85
2021/10/26 11:35:47;;;;;;;6.10;3.05;;;17.10;99.90;;;;;;6253643;28;20531;-88
2021/10/26 11:38:51;;;;;;;6.27;2.80;;;17.20;99.90;;;;;;6309449;28;20443;-88
2021/10/26 11:41:51;;;;;;;5.75;2.88;;;17.00;99.90;;;;;;6298429;28;20077;-88
2021/10/26 11:44:52;;;;;;;5.00;2.90;;;;;;;;;;6260724;28;20456;-86
2021/10/26 11:47:53;;;;;;;5.47;3.05;;;17.40;99.90;;;;;;6282565;28;20024;-85
2021/10/26 11:51:13;;;;;;;6.28;3.28;;;17.30;99.90;;;;;;6261864;28;20121;-86
2021/10/26 11:54:15;;;;;;;5.82;2.63;;;17.30;99.90;;;;;;6271552;28;20097;-90
2021/10/26 11:57:21;;;;;;;4.75;2.72;;;17.50;99.90;;;;;;6305448;28;20049;-86
2021/10/26 12:00:22;;;;;;;6.80;3.03;;;17.40;99.90;;;;;;6284576;28;20031;-86
2021/10/26 12:03:23;;;;;;;5.63;2.85;;;17.70;99.90;;;;;;6264174;28;20454;-87
2021/10/26 12:06:35;;;;;;;5.45;2.72;;;17.60;99.90;;;;;;6276133;28;20056;-88
2021/10/26 12:09:48;;;;;;;11.68;4.20;;;17.80;99.90;;;;;;6293811;28;20021;-88
2021/10/26 12:12:49;;;;;;;5.18;2.63;;;;;;;;;;6267096;28;20447;-86
2021/10/26 12:15:49;;;;;;;6.68;2.83;;;17.60;99.90;;;;;;6289633;28;20043;-81
2021/10/26 12:18:50;;;;;;;5.70;3.20;;;17.80;99.90;;;;;;6316894;28;20032;-81
2021/10/26 12:21:55;;;;;;;4.55;3.30;;;18.00;99.90;;;;;;6317082;28;20377;-81
2021/10/26 12:25:06;;;;;;;3.33;2.10;;;18.00;99.90;;;;;;6300055;28;20050;-82
2021/10/26 12:28:08;;;;;;;6.93;2.65;;;18.10;99.90;;;;;;6301751;28;20156;-82
2021/10/26 12:31:08;;;;;;;5.32;2.63;;;18.10;99.90;;;;;;6300040;28;20073;-82
2021/10/26 12:34:09;;;;;;;4.60;2.65;;;18.10;99.90;;;;;;6283347;28;20032;-81
2021/10/26 12:37:36;;;;;;;5.75;3.03;;;17.90;99.90;;;;;;6301638;28;20032;-80
2021/10/26 12:40:42;;;;;;;7.43;3.85;;;17.80;99.90;;;;;;6280866;28;20131;-80
2021/10/26 12:43:45;;;;;;;5.57;2.88;;;17.80;99.90;;;;;;6295884;28;20065;-81
2021/10/26 12:46:55;;;;;;;5.38;3.42;;;17.70;99.90;;;;;;6271880;28;20024;-84
2021/10/26 12:49:56;;;;;;;5.47;3.15;;;17.60;99.90;;;;;;6259656;28;20036;-83
2021/10/26 12:53:10;;;;;;;4.57;2.67;;;17.70;99.90;;;;;;6258706;28;20032;-81
2021/10/26 12:56:24;;;;;;;5.05;2.75;;;17.80;99.90;;;;;;6291108;28;20053;-82
2021/10/26 12:59:28;;;;;;;5.25;2.33;;;18.00;99.90;;;;;;6291991;28;20501;-83
2021/10/26 13:02:31;;;;;;;4.50;2.90;;;18.30;99.90;;;;;;6275291;28;20031;-83
2021/10/26 13:05:31;;;;;;;3.38;2.60;;;18.40;99.90;;;;;;6275051;28;20405;-83
2021/10/26 13:08:32;;;;;;;3.83;2.42;;;18.40;99.90;;;;;;6291196;28;20086;-84
2021/10/26 13:11:38;;;;;;;3.50;2.43;;;18.30;99.90;;;;;;6275148;28;20031;-83
2021/10/26 13:14:43;;;;;;;5.03;2.30;;;18.00;99.90;;;;;;6274702;28;20463;-84
2021/10/26 13:17:49;;;;;;;4.30;2.40;;;17.80;99.90;;;;;;6291163;28;20394;-82
2021/10/26 13:20:53;;;;;;;2.35;2.15;;;17.60;99.90;;;;;;6266494;28;20056;-83
2021/10/26 13:23:54;;;;;;;5.20;2.67;;;17.30;99.90;;;;;;6274775;28;20484;-82
2021/10/26 13:26:55;;;;;;;6.47;2.45;;;17.10;99.90;;;;;;6276693;28;20017;-81
2021/10/26 13:29:55;;;;;;;6.38;3.03;;;17.10;99.90;;;;;;6310855;28;20033;-81
2021/10/26 13:32:58;;;;;;;4.78;2.60;;;17.20;99.90;;;;;;6274875;28;20025;-81
2021/10/26 13:36:00;;;;;;;3.53;2.30;;;17.30;99.90;;;;;;6290899;28;20035;-81
2021/10/26 13:39:03;;;;;;;4.90;2.70;;;17.20;99.90;;;;;;6269082;28;20021;-83
2021/10/26 13:42:04;;;;;;;3.20;2.20;;;17.50;99.90;;;;;;6291097;28;20123;-80
2021/10/26 13:45:06;;;;;;;4.38;2.17;;;17.60;99.90;;;;;;6259975;28;20073;-81
2021/10/26 13:48:09;;;;;;;3.30;2.10;;;17.60;99.90;;;;;;6294498;28;20060;-81
2021/10/26 13:51:10;;;;;;;3.88;2.45;;;;;;;;;;6263454;28;20118;-81
2021/10/26 13:54:11;;;;;;;4.40;2.10;;;;;;;;;;6298115;28;20028;-87
2021/10/26 13:57:12;;;;;;;4.38;2.60;;;;;;;;;;6278177;28;20135;-86
2021/10/26 14:00:15;;;;;;;5.30;2.63;;;16.90;99.90;;;;;;6293141;28;20068;-82
2021/10/26 14:03:15;;;;;;;6.22;2.63;;;;;;;;;;6297335;28;20434;-81
2021/10/26 14:06:18;;;;;;;6.22;2.45;;;16.70;99.90;;;;;;6300951;28;20114;-83
2021/10/26 14:09:19;;;;;;;6.15;2.67;;;;;;;;;;6278450;28;20021;-81
2021/10/26 14:12:20;;;;;;;4.13;2.50;;;;;;;;;;6295955;28;20039;-83
2021/10/26 14:15:20;;;;;;;3.67;2.33;;;16.60;99.90;;;;;;6295379;28;20040;-83
2021/10/26 14:18:21;;;;;;;4.28;2.50;;;16.60;99.90;;;;;;6296940;28;20134;-87
2021/10/26 14:21:21;;;;;;;5.38;2.45;;;16.80;99.90;;;;;;6281600;28;20028;-83
2021/10/26 14:24:24;;;;;;;4.25;2.83;;;16.60;99.90;;;;;;6296476;28;20032;-80
2021/10/26 14:27:25;;;;;;;3.50;2.35;;;16.70;99.90;;;;;;6320791;28;20026;-79
2021/10/26 14:30:25;;;;;;;5.88;3.03;;;16.80;99.90;;;;;;6279441;28;20398;-79
2021/10/26 14:33:26;;;;;;;6.50;4.72;;;16.70;99.90;;;;;;6295216;28;20028;-82
2021/10/26 14:36:51;;;;;;;32.65;13.93;;;16.60;99.90;;;;;;6291228;28;20028;-80
2021/10/26 14:56:11;;;;;;;7.85;5.03;;;16.30;99.90;;;;;;6305150;28;20132;-81
2021/10/26 14:59:12;;;;;;;12.68;8.98;;;;;;;;;;6301825;28;20028;-81
2021/10/26 15:02:12;;;;;;;24.08;20.33;;;15.90;99.90;;;;;;6296513;28;20040;-82
2021/10/26 15:05:13;;;;;;;8.35;5.32;;;15.80;99.90;;;;;;6291628;28;20154;-81
2021/10/26 15:08:14;;;;;;;5.05;3.63;;;16.00;99.90;;;;;;6294500;28;20028;-84
2021/10/26 15:11:19;;;;;;;3.85;3.10;;;15.70;99.90;;;;;;6277585;28;20046;-82
2021/10/26 15:14:20;;;;;;;5.57;3.92;;;15.80;99.90;;;;;;6278006;28;20044;-81
2021/10/26 15:17:21;;;;;;;9.38;4.47;;;15.40;99.90;;;;;;6293791;28;20425;-82
2021/10/26 15:20:23;;;;;;;6.68;4.18;;;15.30;99.90;;;;;;6295450;28;20028;-81
2021/10/26 15:33:17;;;;;;;6.05;3.97;;;14.90;99.90;;;;;;6295269;28;20028;-80
2021/10/26 15:36:18;;;;;;;5.15;3.28;;;;;;;;;;6278402;28;20048;-82
2021/10/26 15:39:19;;;;;;;7.20;3.67;;;14.90;99.90;;;;;;6293091;28;20436;-82
2021/10/26 15:42:19;;;;;;;4.32;2.92;;;14.90;99.90;;;;;;6276256;28;20063;-81
2021/10/26 15:45:20;;;;;;;38.42;24.30;;;15.00;99.90;;;;;;6265692;28;20056;-82
2021/10/26 15:48:21;;;;;;;7.55;5.32;;;14.90;99.90;;;;;;6293287;28;20126;-82
2021/10/26 15:51:24;;;;;;;5.95;3.90;;;14.80;99.90;;;;;;6292413;28;20028;-83
2021/10/26 15:54:25;;;;;;;6.97;4.45;;;14.90;99.90;;;;;;6299854;28;20039;-87
2021/10/26 15:57:26;;;;;;;15.50;8.63;;;14.80;99.90;;;;;;6283469;28;20048;-86
2021/10/26 16:00:30;;;;;;;13.00;8.52;;;14.80;99.90;;;;;;6294283;28;20024;-85
2021/10/26 16:03:30;;;;;;;8.02;3.90;;;14.90;99.90;;;;;;6263458;28;20069;-85
2021/10/26 16:06:31;;;;;;;6.18;4.10;;;14.40;99.90;;;;;;6299697;28;20029;-85
2021/10/26 16:12:54;;;;;;;8.25;6.03;;;14.30;99.90;;;;;;6273042;28;20111;-83
2021/10/26 16:18:56;;;;;;;9.00;5.40;;;14.00;99.90;;;;;;6267664;28;20031;-85
2021/10/26 16:21:56;;;;;;;7.63;5.68;;;13.80;99.90;;;;;;6281834;28;20031;-83
2021/10/26 16:24:57;;;;;;;8.57;5.60;;;13.60;99.90;;;;;;6277395;28;20060;-84
2021/10/26 16:27:57;;;;;;;11.10;5.97;;;13.50;99.90;;;;;;6271252;28;20035;-87
2021/10/26 16:31:01;;;;;;;9.40;7.18;;;13.10;99.90;;;;;;6277707;28;20020;-81
2021/10/26 16:34:03;;;;;;;17.38;8.50;;;13.20;99.90;;;;;;6268714;28;20059;-82
2021/10/26 16:37:04;;;;;;;8.48;5.90;;;;;;;;;;6265836;28;20116;-88
2021/10/26 16:40:06;;;;;;;8.95;5.03;;;12.90;99.90;;;;;;6300914;28;20466;-81